Strona główna
METAR-TAF:

METAR-TAF

Lotnisko :

Port lotniczy Valdivia-Pichoy

Valdivia, Chile

Szerokość geograficzna: 39-37S, Długość geograficzna: 073-05W, wysokość: 19 m

Aktualna obserwacja pogody

Raport powstał 18 minut temu, godzina 02:00 UTC
Wiatr 7 kt od zachód, zmienny między południowy zachód i zachodnio-północny zachód
Temperatura 7°C
Wilgotność 93%
Ciśnienie 1000 hPa
Widzialność 10 km lub więcej
Mało chmury na wysokości 1400 ft
Zachmurzenie całkowite na wysokości 1700 ft
deszcz

METAR: SCVD 210200Z AUTO 26007KT 220V300 9999 RA FEW014 OVC017 07/06 Q1000

czas: 22:18 (02:18 UTC)


TAF: brakujący

Obserwacja i prognoza pogody dla ponad 4000 lotnisk (raport METAR i TAF).

Dostępne stacje oznaczono żółtymi i czerwonymi punktami na mapie.

Najedź kursorem aby zobaczyć nazwę stacji.

Kliknij aby zobaczyć obserwacje i prognozy pogody.

Aby zmienić mapę: kliknij na zielony przycisk z czarnym krzyżykiem, aby powiększyć; na zielony przycisk z myślnikiem, aby pomniejszyć; na zielone strzałki, aby przejść do map sąsiednich.


METAR-TAF: